sensor_id;sensor_type;location;lat;lon;timestamp;P1;durP1;ratioP1;P2;durP2;ratioP2
20159;SDS011;50187;50.492;12.134;2023-11-19T00:01:36;0.90;;;0.90;;
20159;SDS011;50187;50.492;12.134;2023-11-19T00:04:22;0.50;;;0.50;;
20159;SDS011;50187;50.492;12.134;2023-11-19T00:07:07;0.80;;;0.80;;
20159;SDS011;50187;50.492;12.134;2023-11-19T00:09:55;0.80;;;0.80;;
20159;SDS011;50187;50.492;12.134;2023-11-19T00:12:41;0.80;;;0.80;;
20159;SDS011;50187;50.492;12.134;2023-11-19T00:15:29;0.67;;;0.67;;
20159;SDS011;50187;50.492;12.134;2023-11-19T00:18:15;0.60;;;0.60;;
20159;SDS011;50187;50.492;12.134;2023-11-19T00:21:00;0.70;;;0.70;;
20159;SDS011;50187;50.492;12.134;2023-11-19T00:23:46;1.07;;;1.03;;
20159;SDS011;50187;50.492;12.134;2023-11-19T00:26:32;1.10;;;0.90;;
20159;SDS011;50187;50.492;12.134;2023-11-19T00:29:17;0.80;;;0.80;;
20159;SDS011;50187;50.492;12.134;2023-11-19T00:32:04;0.80;;;0.80;;
20159;SDS011;50187;50.492;12.134;2023-11-19T00:34:50;0.73;;;0.73;;
20159;SDS011;50187;50.492;12.134;2023-11-19T00:37:36;0.40;;;0.40;;
20159;SDS011;50187;50.492;12.134;2023-11-19T00:40:21;1.23;;;0.90;;
20159;SDS011;50187;50.492;12.134;2023-11-19T00:43:08;0.80;;;0.80;;
20159;SDS011;50187;50.492;12.134;2023-11-19T00:45:53;0.80;;;0.80;;
20159;SDS011;50187;50.492;12.134;2023-11-19T00:48:38;0.80;;;0.80;;
20159;SDS011;50187;50.492;12.134;2023-11-19T00:51:24;0.80;;;0.80;;
20159;SDS011;50187;50.492;12.134;2023-11-19T00:54:11;0.50;;;0.50;;
20159;SDS011;50187;50.492;12.134;2023-11-19T00:56:56;0.77;;;0.77;;
20159;SDS011;50187;50.492;12.134;2023-11-19T00:59:42;1.03;;;0.90;;
20159;SDS011;50187;50.492;12.134;2023-11-19T01:02:28;0.70;;;0.70;;
20159;SDS011;50187;50.492;12.134;2023-11-19T01:05:14;0.70;;;0.70;;
20159;SDS011;50187;50.492;12.134;2023-11-19T01:07:59;0.73;;;0.73;;
20159;SDS011;50187;50.492;12.134;2023-11-19T01:10:45;0.60;;;0.60;;
20159;SDS011;50187;50.492;12.134;2023-11-19T01:13:30;1.00;;;1.00;;
20159;SDS011;50187;50.492;12.134;2023-11-19T01:16:15;1.80;;;1.70;;
20159;SDS011;50187;50.492;12.134;2023-11-19T01:19:01;1.97;;;1.80;;
20159;SDS011;50187;50.492;12.134;2023-11-19T01:22:01;1.20;;;1.20;;
20159;SDS011;50187;50.492;12.134;2023-11-19T01:24:47;0.90;;;0.90;;
20159;SDS011;50187;50.492;12.134;2023-11-19T01:27:33;1.50;;;1.40;;
20159;SDS011;50187;50.492;12.134;2023-11-19T01:30:21;4.70;;;4.00;;
20159;SDS011;50187;50.492;12.134;2023-11-19T01:33:07;4.73;;;4.23;;
20159;SDS011;50187;50.492;12.134;2023-11-19T01:35:52;4.83;;;4.33;;
20159;SDS011;50187;50.492;12.134;2023-11-19T01:38:37;4.13;;;3.70;;
20159;SDS011;50187;50.492;12.134;2023-11-19T01:41:23;7.70;;;6.23;;
20159;SDS011;50187;50.492;12.134;2023-11-19T01:44:09;24.23;;;18.43;;
20159;SDS011;50187;50.492;12.134;2023-11-19T01:46:57;25.73;;;20.33;;
20159;SDS011;50187;50.492;12.134;2023-11-19T01:49:42;28.53;;;21.83;;
20159;SDS011;50187;50.492;12.134;2023-11-19T01:52:28;22.03;;;17.60;;
20159;SDS011;50187;50.492;12.134;2023-11-19T01:55:14;38.57;;;29.50;;
20159;SDS011;50187;50.492;12.134;2023-11-19T01:58:00;41.03;;;30.93;;
20159;SDS011;50187;50.492;12.134;2023-11-19T02:00:46;35.40;;;28.90;;
20159;SDS011;50187;50.492;12.134;2023-11-19T02:03:32;41.73;;;33.13;;
20159;SDS011;50187;50.492;12.134;2023-11-19T02:06:19;32.40;;;27.27;;
20159;SDS011;50187;50.492;12.134;2023-11-19T02:09:05;37.23;;;26.67;;
20159;SDS011;50187;50.492;12.134;2023-11-19T02:11:53;43.90;;;32.90;;
20159;SDS011;50187;50.492;12.134;2023-11-19T02:14:39;29.73;;;23.37;;
20159;SDS011;50187;50.492;12.134;2023-11-19T02:17:26;22.83;;;16.87;;
20159;SDS011;50187;50.492;12.134;2023-11-19T02:20:13;22.37;;;18.33;;
20159;SDS011;50187;50.492;12.134;2023-11-19T02:23:00;24.83;;;19.97;;
20159;SDS011;50187;50.492;12.134;2023-11-19T02:26:09;32.97;;;25.97;;
20159;SDS011;50187;50.492;12.134;2023-11-19T02:29:12;32.07;;;24.40;;
20159;SDS011;50187;50.492;12.134;2023-11-19T02:31:57;33.10;;;26.20;;
20159;SDS011;50187;50.492;12.134;2023-11-19T02:34:43;34.23;;;26.77;;
20159;SDS011;50187;50.492;12.134;2023-11-19T02:37:28;37.23;;;28.57;;
20159;SDS011;50187;50.492;12.134;2023-11-19T02:40:14;33.87;;;28.40;;
20159;SDS011;50187;50.492;12.134;2023-11-19T02:42:59;36.00;;;28.50;;
20159;SDS011;50187;50.492;12.134;2023-11-19T02:45:45;36.87;;;28.90;;
20159;SDS011;50187;50.492;12.134;2023-11-19T02:48:31;35.53;;;27.17;;
20159;SDS011;50187;50.492;12.134;2023-11-19T02:51:16;32.80;;;26.93;;
20159;SDS011;50187;50.492;12.134;2023-11-19T02:54:03;36.70;;;27.73;;
20159;SDS011;50187;50.492;12.134;2023-11-19T02:56:48;32.23;;;26.03;;
20159;SDS011;50187;50.492;12.134;2023-11-19T02:59:40;34.17;;;26.00;;
20159;SDS011;50187;50.492;12.134;2023-11-19T03:02:28;31.80;;;25.50;;
20159;SDS011;50187;50.492;12.134;2023-11-19T03:05:19;30.93;;;24.77;;
20159;SDS011;50187;50.492;12.134;2023-11-19T03:08:05;30.07;;;23.73;;
20159;SDS011;50187;50.492;12.134;2023-11-19T03:10:50;29.60;;;24.00;;
20159;SDS011;50187;50.492;12.134;2023-11-19T03:13:35;34.07;;;25.60;;
20159;SDS011;50187;50.492;12.134;2023-11-19T03:16:20;27.30;;;22.57;;
20159;SDS011;50187;50.492;12.134;2023-11-19T03:19:06;27.43;;;23.73;;
20159;SDS011;50187;50.492;12.134;2023-11-19T03:21:51;29.67;;;23.73;;
20159;SDS011;50187;50.492;12.134;2023-11-19T03:24:38;28.10;;;21.43;;
20159;SDS011;50187;50.492;12.134;2023-11-19T03:27:23;25.37;;;21.63;;
20159;SDS011;50187;50.492;12.134;2023-11-19T03:30:09;23.30;;;19.87;;
20159;SDS011;50187;50.492;12.134;2023-11-19T03:32:55;23.63;;;19.37;;
20159;SDS011;50187;50.492;12.134;2023-11-19T03:35:41;25.50;;;20.03;;
20159;SDS011;50187;50.492;12.134;2023-11-19T03:38:26;24.70;;;20.27;;
20159;SDS011;50187;50.492;12.134;2023-11-19T03:41:15;24.83;;;20.53;;
20159;SDS011;50187;50.492;12.134;2023-11-19T03:44:02;24.80;;;18.87;;
20159;SDS011;50187;50.492;12.134;2023-11-19T03:46:48;21.00;;;17.63;;
20159;SDS011;50187;50.492;12.134;2023-11-19T03:49:34;22.83;;;17.37;;
20159;SDS011;50187;50.492;12.134;2023-11-19T03:52:19;20.40;;;17.17;;
20159;SDS011;50187;50.492;12.134;2023-11-19T03:55:05;20.50;;;17.17;;
20159;SDS011;50187;50.492;12.134;2023-11-19T03:57:53;22.80;;;18.20;;
20159;SDS011;50187;50.492;12.134;2023-11-19T04:00:39;18.60;;;16.00;;
20159;SDS011;50187;50.492;12.134;2023-11-19T04:03:25;20.00;;;16.53;;
20159;SDS011;50187;50.492;12.134;2023-11-19T04:06:10;18.83;;;15.47;;
20159;SDS011;50187;50.492;12.134;2023-11-19T04:08:56;19.63;;;16.43;;
20159;SDS011;50187;50.492;12.134;2023-11-19T04:11:41;19.37;;;15.60;;
20159;SDS011;50187;50.492;12.134;2023-11-19T04:14:26;19.23;;;15.73;;
20159;SDS011;50187;50.492;12.134;2023-11-19T04:17:11;16.43;;;13.47;;
20159;SDS011;50187;50.492;12.134;2023-11-19T04:19:57;18.57;;;14.80;;
20159;SDS011;50187;50.492;12.134;2023-11-19T04:22:42;20.00;;;15.57;;
20159;SDS011;50187;50.492;12.134;2023-11-19T04:25:28;16.77;;;13.90;;
20159;SDS011;50187;50.492;12.134;2023-11-19T04:28:13;16.23;;;14.23;;
20159;SDS011;50187;50.492;12.134;2023-11-19T04:30:59;17.00;;;13.43;;
20159;SDS011;50187;50.492;12.134;2023-11-19T04:33:44;15.20;;;12.83;;
20159;SDS011;50187;50.492;12.134;2023-11-19T04:36:29;15.27;;;13.37;;
20159;SDS011;50187;50.492;12.134;2023-11-19T04:39:15;16.60;;;13.80;;
20159;SDS011;50187;50.492;12.134;2023-11-19T04:42:00;15.23;;;12.20;;
20159;SDS011;50187;50.492;12.134;2023-11-19T04:44:46;14.27;;;11.87;;
20159;SDS011;50187;50.492;12.134;2023-11-19T04:47:31;14.27;;;12.00;;
20159;SDS011;50187;50.492;12.134;2023-11-19T04:50:16;13.27;;;11.67;;
20159;SDS011;50187;50.492;12.134;2023-11-19T04:53:03;14.07;;;11.40;;
20159;SDS011;50187;50.492;12.134;2023-11-19T04:55:48;12.87;;;11.00;;
20159;SDS011;50187;50.492;12.134;2023-11-19T04:58:33;12.80;;;10.73;;
20159;SDS011;50187;50.492;12.134;2023-11-19T05:01:21;13.00;;;10.87;;
20159;SDS011;50187;50.492;12.134;2023-11-19T05:04:07;11.10;;;10.00;;
20159;SDS011;50187;50.492;12.134;2023-11-19T05:06:53;12.07;;;9.97;;
20159;SDS011;50187;50.492;12.134;2023-11-19T05:09:38;12.13;;;10.23;;
20159;SDS011;50187;50.492;12.134;2023-11-19T05:12:23;10.67;;;9.03;;
20159;SDS011;50187;50.492;12.134;2023-11-19T05:15:09;11.80;;;9.80;;
20159;SDS011;50187;50.492;12.134;2023-11-19T05:17:57;11.47;;;9.63;;
20159;SDS011;50187;50.492;12.134;2023-11-19T05:20:42;10.43;;;9.10;;
20159;SDS011;50187;50.492;12.134;2023-11-19T05:23:27;10.37;;;9.10;;
20159;SDS011;50187;50.492;12.134;2023-11-19T05:26:23;10.07;;;8.43;;
20159;SDS011;50187;50.492;12.134;2023-11-19T05:29:08;10.57;;;9.07;;
20159;SDS011;50187;50.492;12.134;2023-11-19T05:31:54;10.27;;;8.97;;
20159;SDS011;50187;50.492;12.134;2023-11-19T05:34:40;9.37;;;8.37;;
20159;SDS011;50187;50.492;12.134;2023-11-19T05:37:28;10.50;;;8.90;;
20159;SDS011;50187;50.492;12.134;2023-11-19T05:40:14;9.63;;;8.07;;
20159;SDS011;50187;50.492;12.134;2023-11-19T05:43:00;7.97;;;7.17;;
20159;SDS011;50187;50.492;12.134;2023-11-19T05:45:46;8.93;;;7.83;;
20159;SDS011;50187;50.492;12.134;2023-11-19T05:48:31;7.80;;;7.00;;
20159;SDS011;50187;50.492;12.134;2023-11-19T05:51:17;8.53;;;7.00;;
20159;SDS011;50187;50.492;12.134;2023-11-19T05:54:02;8.03;;;7.00;;
20159;SDS011;50187;50.492;12.134;2023-11-19T05:56:48;7.47;;;6.77;;
20159;SDS011;50187;50.492;12.134;2023-11-19T05:59:38;6.60;;;5.93;;
20159;SDS011;50187;50.492;12.134;2023-11-19T06:02:23;7.17;;;6.07;;
20159;SDS011;50187;50.492;12.134;2023-11-19T06:05:09;7.50;;;6.50;;
20159;SDS011;50187;50.492;12.134;2023-11-19T06:07:54;6.13;;;5.53;;
20159;SDS011;50187;50.492;12.134;2023-11-19T06:10:40;7.07;;;5.87;;
20159;SDS011;50187;50.492;12.134;2023-11-19T06:13:25;6.80;;;6.10;;
20159;SDS011;50187;50.492;12.134;2023-11-19T06:16:11;7.00;;;5.50;;
20159;SDS011;50187;50.492;12.134;2023-11-19T06:18:57;6.20;;;5.57;;
20159;SDS011;50187;50.492;12.134;2023-11-19T06:21:43;7.00;;;5.73;;
20159;SDS011;50187;50.492;12.134;2023-11-19T06:24:28;5.83;;;5.23;;
20159;SDS011;50187;50.492;12.134;2023-11-19T06:27:13;5.60;;;5.00;;
20159;SDS011;50187;50.492;12.134;2023-11-19T06:29:59;5.87;;;5.00;;
20159;SDS011;50187;50.492;12.134;2023-11-19T06:32:44;5.60;;;4.87;;
20159;SDS011;50187;50.492;12.134;2023-11-19T06:35:30;5.80;;;5.10;;
20159;SDS011;50187;50.492;12.134;2023-11-19T06:38:21;6.10;;;5.40;;
20159;SDS011;50187;50.492;12.134;2023-11-19T06:41:07;4.87;;;4.37;;
20159;SDS011;50187;50.492;12.134;2023-11-19T06:43:53;5.83;;;5.10;;
20159;SDS011;50187;50.492;12.134;2023-11-19T06:46:39;5.33;;;4.30;;
20159;SDS011;50187;50.492;12.134;2023-11-19T06:49:24;6.53;;;4.80;;
20159;SDS011;50187;50.492;12.134;2023-11-19T06:52:10;4.60;;;4.20;;
20159;SDS011;50187;50.492;12.134;2023-11-19T06:54:55;5.30;;;4.33;;
20159;SDS011;50187;50.492;12.134;2023-11-19T06:57:52;4.70;;;4.17;;
20159;SDS011;50187;50.492;12.134;2023-11-19T07:00:37;4.93;;;4.40;;
20159;SDS011;50187;50.492;12.134;2023-11-19T07:03:23;4.93;;;4.43;;
20159;SDS011;50187;50.492;12.134;2023-11-19T07:06:09;5.27;;;4.50;;
20159;SDS011;50187;50.492;12.134;2023-11-19T07:08:55;4.77;;;4.10;;
20159;SDS011;50187;50.492;12.134;2023-11-19T07:11:40;4.07;;;3.63;;
20159;SDS011;50187;50.492;12.134;2023-11-19T07:14:26;4.17;;;3.77;;
20159;SDS011;50187;50.492;12.134;2023-11-19T07:17:12;4.07;;;3.67;;
20159;SDS011;50187;50.492;12.134;2023-11-19T07:19:58;3.70;;;3.00;;
20159;SDS011;50187;50.492;12.134;2023-11-19T07:22:45;3.50;;;3.20;;
20159;SDS011;50187;50.492;12.134;2023-11-19T07:25:30;4.70;;;3.53;;
20159;SDS011;50187;50.492;12.134;2023-11-19T07:28:16;3.70;;;3.33;;
20159;SDS011;50187;50.492;12.134;2023-11-19T07:31:01;3.57;;;3.27;;
20159;SDS011;50187;50.492;12.134;2023-11-19T07:33:46;3.43;;;3.13;;
20159;SDS011;50187;50.492;12.134;2023-11-19T07:36:32;4.10;;;3.70;;
20159;SDS011;50187;50.492;12.134;2023-11-19T07:39:18;3.70;;;3.30;;
20159;SDS011;50187;50.492;12.134;2023-11-19T07:42:06;3.67;;;3.37;;
20159;SDS011;50187;50.492;12.134;2023-11-19T07:44:51;3.97;;;3.30;;
20159;SDS011;50187;50.492;12.134;2023-11-19T07:47:36;3.70;;;3.10;;
20159;SDS011;50187;50.492;12.134;2023-11-19T07:50:22;2.77;;;2.57;;
20159;SDS011;50187;50.492;12.134;2023-11-19T07:53:09;3.57;;;3.13;;
20159;SDS011;50187;50.492;12.134;2023-11-19T07:55:55;3.37;;;2.90;;
20159;SDS011;50187;50.492;12.134;2023-11-19T07:58:40;2.70;;;2.50;;
20159;SDS011;50187;50.492;12.134;2023-11-19T08:01:25;2.57;;;2.37;;
20159;SDS011;50187;50.492;12.134;2023-11-19T08:04:10;3.03;;;2.73;;
20159;SDS011;50187;50.492;12.134;2023-11-19T08:06:56;3.33;;;2.90;;
20159;SDS011;50187;50.492;12.134;2023-11-19T08:09:42;2.83;;;2.50;;
20159;SDS011;50187;50.492;12.134;2023-11-19T08:12:27;2.70;;;2.43;;
20159;SDS011;50187;50.492;12.134;2023-11-19T08:15:13;3.60;;;3.03;;
20159;SDS011;50187;50.492;12.134;2023-11-19T08:17:58;3.10;;;2.67;;
20159;SDS011;50187;50.492;12.134;2023-11-19T08:20:44;2.53;;;2.33;;
20159;SDS011;50187;50.492;12.134;2023-11-19T08:23:30;2.43;;;2.23;;
20159;SDS011;50187;50.492;12.134;2023-11-19T08:26:15;2.53;;;2.33;;
20159;SDS011;50187;50.492;12.134;2023-11-19T08:29:05;2.80;;;2.37;;
20159;SDS011;50187;50.492;12.134;2023-11-19T08:31:50;2.60;;;2.40;;
20159;SDS011;50187;50.492;12.134;2023-11-19T08:34:36;2.53;;;2.33;;
20159;SDS011;50187;50.492;12.134;2023-11-19T08:37:21;2.43;;;2.23;;
20159;SDS011;50187;50.492;12.134;2023-11-19T08:40:08;2.50;;;2.17;;
20159;SDS011;50187;50.492;12.134;2023-11-19T08:42:54;2.30;;;2.10;;
20159;SDS011;50187;50.492;12.134;2023-11-19T08:45:39;2.53;;;2.33;;
20159;SDS011;50187;50.492;12.134;2023-11-19T08:48:24;2.23;;;2.03;;
20159;SDS011;50187;50.492;12.134;2023-11-19T08:51:11;2.27;;;2.07;;
20159;SDS011;50187;50.492;12.134;2023-11-19T08:53:57;2.37;;;2.17;;
20159;SDS011;50187;50.492;12.134;2023-11-19T08:56:42;2.50;;;2.30;;
20159;SDS011;50187;50.492;12.134;2023-11-19T08:59:28;2.50;;;2.17;;
20159;SDS011;50187;50.492;12.134;2023-11-19T09:02:14;2.63;;;2.43;;
20159;SDS011;50187;50.492;12.134;2023-11-19T09:05:00;2.00;;;1.90;;
20159;SDS011;50187;50.492;12.134;2023-11-19T09:07:46;1.90;;;1.80;;
20159;SDS011;50187;50.492;12.134;2023-11-19T09:10:32;1.70;;;1.60;;
20159;SDS011;50187;50.492;12.134;2023-11-19T09:13:17;2.30;;;2.10;;
20159;SDS011;50187;50.492;12.134;2023-11-19T09:16:03;2.20;;;2.00;;
20159;SDS011;50187;50.492;12.134;2023-11-19T09:18:49;2.67;;;1.93;;
20159;SDS011;50187;50.492;12.134;2023-11-19T09:21:34;2.07;;;1.97;;
20159;SDS011;50187;50.492;12.134;2023-11-19T09:24:23;2.13;;;1.73;;
20159;SDS011;50187;50.492;12.134;2023-11-19T09:27:08;1.70;;;1.60;;
20159;SDS011;50187;50.492;12.134;2023-11-19T09:29:54;2.27;;;1.60;;
20159;SDS011;50187;50.492;12.134;2023-11-19T09:32:42;1.40;;;1.30;;
20159;SDS011;50187;50.492;12.134;2023-11-19T09:35:28;1.67;;;1.57;;
20159;SDS011;50187;50.492;12.134;2023-11-19T09:38:13;1.80;;;1.70;;
20159;SDS011;50187;50.492;12.134;2023-11-19T09:40:58;2.00;;;1.80;;
20159;SDS011;50187;50.492;12.134;2023-11-19T09:43:53;1.83;;;1.63;;
20159;SDS011;50187;50.492;12.134;2023-11-19T09:46:39;1.60;;;1.50;;
20159;SDS011;50187;50.492;12.134;2023-11-19T09:49:26;1.43;;;1.33;;
20159;SDS011;50187;50.492;12.134;2023-11-19T09:52:15;1.80;;;1.70;;
20159;SDS011;50187;50.492;12.134;2023-11-19T09:55:00;1.60;;;1.50;;
20159;SDS011;50187;50.492;12.134;2023-11-19T09:57:46;1.80;;;1.67;;
20159;SDS011;50187;50.492;12.134;2023-11-19T10:00:35;2.53;;;1.87;;
20159;SDS011;50187;50.492;12.134;2023-11-19T10:03:21;1.50;;;1.40;;
20159;SDS011;50187;50.492;12.134;2023-11-19T10:06:08;1.70;;;1.60;;
20159;SDS011;50187;50.492;12.134;2023-11-19T10:08:55;1.60;;;1.50;;
20159;SDS011;50187;50.492;12.134;2023-11-19T10:11:41;1.53;;;1.43;;
20159;SDS011;50187;50.492;12.134;2023-11-19T10:14:26;1.47;;;1.37;;
20159;SDS011;50187;50.492;12.134;2023-11-19T10:17:13;1.80;;;1.70;;
20159;SDS011;50187;50.492;12.134;2023-11-19T10:19:58;2.23;;;1.70;;
20159;SDS011;50187;50.492;12.134;2023-11-19T10:22:44;1.43;;;1.33;;
20159;SDS011;50187;50.492;12.134;2023-11-19T10:25:31;1.23;;;1.13;;
20159;SDS011;50187;50.492;12.134;2023-11-19T10:28:17;1.33;;;1.20;;
20159;SDS011;50187;50.492;12.134;2023-11-19T10:31:04;1.73;;;1.63;;
20159;SDS011;50187;50.492;12.134;2023-11-19T10:33:50;1.30;;;1.20;;
20159;SDS011;50187;50.492;12.134;2023-11-19T10:36:39;1.27;;;1.20;;
20159;SDS011;50187;50.492;12.134;2023-11-19T10:42:39;1.50;;;1.40;;
20159;SDS011;50187;50.492;12.134;2023-11-19T10:45:25;1.47;;;1.37;;
20159;SDS011;50187;50.492;12.134;2023-11-19T10:48:10;1.30;;;1.20;;
20159;SDS011;50187;50.492;12.134;2023-11-19T10:50:57;1.40;;;1.30;;
20159;SDS011;50187;50.492;12.134;2023-11-19T10:53:42;1.80;;;1.40;;
20159;SDS011;50187;50.492;12.134;2023-11-19T10:56:30;1.37;;;1.23;;
20159;SDS011;50187;50.492;12.134;2023-11-19T10:59:16;1.30;;;1.20;;
20159;SDS011;50187;50.492;12.134;2023-11-19T11:02:09;1.23;;;1.13;;
20159;SDS011;50187;50.492;12.134;2023-11-19T11:04:55;0.97;;;0.97;;
20159;SDS011;50187;50.492;12.134;2023-11-19T11:07:42;1.40;;;1.30;;
20159;SDS011;50187;50.492;12.134;2023-11-19T11:10:29;1.10;;;1.10;;
20159;SDS011;50187;50.492;12.134;2023-11-19T11:13:24;0.90;;;0.90;;
20159;SDS011;50187;50.492;12.134;2023-11-19T11:16:10;1.20;;;1.10;;
20159;SDS011;50187;50.492;12.134;2023-11-19T11:18:56;1.10;;;1.00;;
20159;SDS011;50187;50.492;12.134;2023-11-19T11:21:42;1.43;;;1.33;;
20159;SDS011;50187;50.492;12.134;2023-11-19T11:24:34;0.90;;;0.90;;
20159;SDS011;50187;50.492;12.134;2023-11-19T11:27:57;1.30;;;1.20;;
20159;SDS011;50187;50.492;12.134;2023-11-19T11:31:01;1.03;;;1.03;;
20159;SDS011;50187;50.492;12.134;2023-11-19T11:36:58;1.07;;;0.83;;
20159;SDS011;50187;50.492;12.134;2023-11-19T11:39:48;0.83;;;0.83;;
20159;SDS011;50187;50.492;12.134;2023-11-19T11:42:35;1.50;;;1.17;;
20159;SDS011;50187;50.492;12.134;2023-11-19T11:45:34;1.23;;;1.13;;
20159;SDS011;50187;50.492;12.134;2023-11-19T11:48:22;1.30;;;1.20;;
20159;SDS011;50187;50.492;12.134;2023-11-19T11:51:09;1.10;;;1.00;;
20159;SDS011;50187;50.492;12.134;2023-11-19T11:53:54;1.10;;;1.10;;
20159;SDS011;50187;50.492;12.134;2023-11-19T11:56:43;1.27;;;1.17;;
20159;SDS011;50187;50.492;12.134;2023-11-19T11:59:49;0.90;;;0.90;;
20159;SDS011;50187;50.492;12.134;2023-11-19T12:02:35;1.10;;;1.00;;
20159;SDS011;50187;50.492;12.134;2023-11-19T12:05:21;1.10;;;1.00;;
20159;SDS011;50187;50.492;12.134;2023-11-19T12:08:07;1.10;;;1.00;;
20159;SDS011;50187;50.492;12.134;2023-11-19T12:10:55;1.30;;;1.20;;
20159;SDS011;50187;50.492;12.134;2023-11-19T12:13:55;1.23;;;1.10;;
20159;SDS011;50187;50.492;12.134;2023-11-19T12:16:43;1.20;;;1.10;;
20159;SDS011;50187;50.492;12.134;2023-11-19T12:19:28;1.20;;;1.10;;
20159;SDS011;50187;50.492;12.134;2023-11-19T12:22:14;1.60;;;0.93;;
20159;SDS011;50187;50.492;12.134;2023-11-19T12:24:59;1.40;;;1.30;;
20159;SDS011;50187;50.492;12.134;2023-11-19T12:27:45;1.10;;;1.00;;
20159;SDS011;50187;50.492;12.134;2023-11-19T12:30:33;1.10;;;1.10;;
20159;SDS011;50187;50.492;12.134;2023-11-19T12:33:18;0.90;;;0.90;;
20159;SDS011;50187;50.492;12.134;2023-11-19T12:36:05;0.90;;;0.90;;
20159;SDS011;50187;50.492;12.134;2023-11-19T12:38:51;0.90;;;0.90;;
20159;SDS011;50187;50.492;12.134;2023-11-19T12:41:49;0.83;;;0.83;;
20159;SDS011;50187;50.492;12.134;2023-11-19T12:44:36;1.20;;;1.10;;
20159;SDS011;50187;50.492;12.134;2023-11-19T12:47:21;1.00;;;1.00;;
20159;SDS011;50187;50.492;12.134;2023-11-19T12:50:06;0.90;;;0.90;;
20159;SDS011;50187;50.492;12.134;2023-11-19T12:52:56;0.80;;;0.80;;
20159;SDS011;50187;50.492;12.134;2023-11-19T12:55:42;0.90;;;0.90;;
20159;SDS011;50187;50.492;12.134;2023-11-19T12:58:34;0.73;;;0.73;;
20159;SDS011;50187;50.492;12.134;2023-11-19T13:01:23;1.53;;;1.00;;
20159;SDS011;50187;50.492;12.134;2023-11-19T13:04:17;0.93;;;0.93;;
20159;SDS011;50187;50.492;12.134;2023-11-19T13:07:03;0.70;;;0.70;;
20159;SDS011;50187;50.492;12.134;2023-11-19T13:09:51;1.93;;;0.90;;
20159;SDS011;50187;50.492;12.134;2023-11-19T13:12:42;0.83;;;0.83;;
20159;SDS011;50187;50.492;12.134;2023-11-19T13:15:28;0.90;;;0.90;;
20159;SDS011;50187;50.492;12.134;2023-11-19T13:18:15;0.57;;;0.57;;
20159;SDS011;50187;50.492;12.134;2023-11-19T13:21:02;0.83;;;0.83;;
20159;SDS011;50187;50.492;12.134;2023-11-19T13:23:47;1.00;;;0.90;;
20159;SDS011;50187;50.492;12.134;2023-11-19T13:26:32;0.80;;;0.80;;
20159;SDS011;50187;50.492;12.134;2023-11-19T13:29:18;0.70;;;0.70;;
20159;SDS011;50187;50.492;12.134;2023-11-19T13:32:03;0.87;;;0.87;;
20159;SDS011;50187;50.492;12.134;2023-11-19T13:34:50;1.13;;;0.93;;
20159;SDS011;50187;50.492;12.134;2023-11-19T13:37:35;0.70;;;0.70;;
20159;SDS011;50187;50.492;12.134;2023-11-19T13:40:21;0.70;;;0.67;;
20159;SDS011;50187;50.492;12.134;2023-11-19T13:43:07;0.80;;;0.80;;
20159;SDS011;50187;50.492;12.134;2023-11-19T13:45:53;1.03;;;0.80;;
20159;SDS011;50187;50.492;12.134;2023-11-19T13:48:39;0.80;;;0.73;;
20159;SDS011;50187;50.492;12.134;2023-11-19T13:51:24;0.60;;;0.60;;
20159;SDS011;50187;50.492;12.134;2023-11-19T13:54:09;1.07;;;0.70;;
20159;SDS011;50187;50.492;12.134;2023-11-19T13:56:55;1.27;;;0.90;;
20159;SDS011;50187;50.492;12.134;2023-11-19T13:59:42;0.83;;;0.77;;
20159;SDS011;50187;50.492;12.134;2023-11-19T14:02:27;0.80;;;0.80;;
20159;SDS011;50187;50.492;12.134;2023-11-19T14:05:12;0.70;;;0.70;;
20159;SDS011;50187;50.492;12.134;2023-11-19T14:07:58;1.00;;;0.90;;
20159;SDS011;50187;50.492;12.134;2023-11-19T14:10:44;0.70;;;0.70;;
20159;SDS011;50187;50.492;12.134;2023-11-19T14:13:29;0.93;;;0.90;;
20159;SDS011;50187;50.492;12.134;2023-11-19T14:16:15;0.80;;;0.80;;
20159;SDS011;50187;50.492;12.134;2023-11-19T14:19:00;1.13;;;0.80;;
20159;SDS011;50187;50.492;12.134;2023-11-19T14:21:46;0.93;;;0.90;;
20159;SDS011;50187;50.492;12.134;2023-11-19T14:24:32;2.07;;;0.73;;
20159;SDS011;50187;50.492;12.134;2023-11-19T14:27:18;0.97;;;0.87;;
20159;SDS011;50187;50.492;12.134;2023-11-19T14:30:04;1.67;;;0.70;;
20159;SDS011;50187;50.492;12.134;2023-11-19T14:32:50;0.70;;;0.70;;
20159;SDS011;50187;50.492;12.134;2023-11-19T14:35:36;1.50;;;0.97;;
20159;SDS011;50187;50.492;12.134;2023-11-19T14:38:21;0.93;;;0.80;;
20159;SDS011;50187;50.492;12.134;2023-11-19T14:41:06;2.43;;;0.93;;
20159;SDS011;50187;50.492;12.134;2023-11-19T14:43:52;1.27;;;0.90;;
20159;SDS011;50187;50.492;12.134;2023-11-19T14:46:37;1.40;;;1.00;;
20159;SDS011;50187;50.492;12.134;2023-11-19T14:49:23;1.50;;;0.90;;
20159;SDS011;50187;50.492;12.134;2023-11-19T14:52:09;1.20;;;0.90;;
20159;SDS011;50187;50.492;12.134;2023-11-19T14:54:58;1.00;;;0.97;;
20159;SDS011;50187;50.492;12.134;2023-11-19T14:57:43;1.37;;;0.97;;
20159;SDS011;50187;50.492;12.134;2023-11-19T15:00:41;0.97;;;0.80;;
20159;SDS011;50187;50.492;12.134;2023-11-19T15:03:27;1.13;;;0.97;;
20159;SDS011;50187;50.492;12.134;2023-11-19T15:06:13;0.90;;;0.90;;
20159;SDS011;50187;50.492;12.134;2023-11-19T15:08:58;1.30;;;1.03;;
20159;SDS011;50187;50.492;12.134;2023-11-19T15:11:44;1.60;;;1.23;;
20159;SDS011;50187;50.492;12.134;2023-11-19T15:14:32;2.10;;;1.43;;
20159;SDS011;50187;50.492;12.134;2023-11-19T15:17:17;1.13;;;1.03;;
20159;SDS011;50187;50.492;12.134;2023-11-19T15:20:03;1.40;;;1.30;;
20159;SDS011;50187;50.492;12.134;2023-11-19T15:22:49;0.73;;;0.73;;
20159;SDS011;50187;50.492;12.134;2023-11-19T15:25:34;5.00;;;1.57;;
20159;SDS011;50187;50.492;12.134;2023-11-19T15:28:21;4.20;;;1.50;;
20159;SDS011;50187;50.492;12.134;2023-11-19T15:31:06;5.63;;;1.90;;
20159;SDS011;50187;50.492;12.134;2023-11-19T15:33:52;3.63;;;1.77;;
20159;SDS011;50187;50.492;12.134;2023-11-19T15:36:37;2.37;;;1.60;;
20159;SDS011;50187;50.492;12.134;2023-11-19T15:39:23;14.70;;;10.80;;
20159;SDS011;50187;50.492;12.134;2023-11-19T15:42:08;15.37;;;11.83;;
20159;SDS011;50187;50.492;12.134;2023-11-19T15:44:55;27.90;;;24.80;;
20159;SDS011;50187;50.492;12.134;2023-11-19T15:47:41;34.60;;;31.00;;
20159;SDS011;50187;50.492;12.134;2023-11-19T15:50:26;38.90;;;34.80;;
20159;SDS011;50187;50.492;12.134;2023-11-19T15:53:14;44.90;;;40.27;;
20159;SDS011;50187;50.492;12.134;2023-11-19T15:56:00;43.47;;;39.07;;
20159;SDS011;50187;50.492;12.134;2023-11-19T15:58:46;41.43;;;37.23;;
20159;SDS011;50187;50.492;12.134;2023-11-19T16:01:32;38.47;;;34.50;;
20159;SDS011;50187;50.492;12.134;2023-11-19T16:04:18;39.93;;;35.83;;
20159;SDS011;50187;50.492;12.134;2023-11-19T16:07:03;34.90;;;30.93;;
20159;SDS011;50187;50.492;12.134;2023-11-19T16:09:50;34.57;;;31.03;;
20159;SDS011;50187;50.492;12.134;2023-11-19T16:12:35;34.07;;;30.50;;
20159;SDS011;50187;50.492;12.134;2023-11-19T16:15:20;32.63;;;29.13;;
20159;SDS011;50187;50.492;12.134;2023-11-19T16:18:08;30.97;;;27.57;;
20159;SDS011;50187;50.492;12.134;2023-11-19T16:20:58;29.47;;;26.57;;
20159;SDS011;50187;50.492;12.134;2023-11-19T16:23:43;29.17;;;26.17;;
20159;SDS011;50187;50.492;12.134;2023-11-19T16:26:30;27.80;;;24.97;;
20159;SDS011;50187;50.492;12.134;2023-11-19T16:29:17;26.70;;;23.93;;